createdAt,value
2023-05-05T00:00:12.112Z,0
2023-05-05T00:01:26.607Z,0
2023-05-05T00:03:55.539Z,0
2023-05-05T00:05:10.000Z,0
2023-05-05T00:06:24.479Z,0
2023-05-05T00:07:38.945Z,0
2023-05-05T00:08:53.415Z,0
2023-05-05T00:10:07.872Z,0
2023-05-05T00:11:22.336Z,0
2023-05-05T00:12:35.925Z,0
2023-05-05T00:13:50.402Z,0
2023-05-05T00:15:04.867Z,0
2023-05-05T00:16:19.351Z,0
2023-05-05T00:18:48.280Z,0
2023-05-05T00:20:02.736Z,0
2023-05-05T00:21:17.205Z,0
2023-05-05T00:22:31.673Z,0
2023-05-05T00:23:46.136Z,0
2023-05-05T00:25:00.600Z,0
2023-05-05T00:26:15.083Z,0
2023-05-05T00:27:29.555Z,0
2023-05-05T00:28:44.032Z,0
2023-05-05T00:29:58.486Z,0
2023-05-05T00:31:12.103Z,0
2023-05-05T00:32:25.682Z,0
2023-05-05T00:33:40.156Z,0
2023-05-05T00:34:54.632Z,0
2023-05-05T00:36:09.099Z,0
2023-05-05T00:37:23.555Z,0
2023-05-05T00:38:38.015Z,0
2023-05-05T00:39:52.480Z,0
2023-05-05T00:41:06.971Z,0
2023-05-05T00:43:35.891Z,0
2023-05-05T00:44:50.371Z,0
2023-05-05T00:46:04.840Z,0
2023-05-05T00:47:19.302Z,0
2023-05-05T00:48:33.771Z,0
2023-05-05T00:49:48.238Z,0
2023-05-05T00:51:01.826Z,0
2023-05-05T00:53:30.753Z,0
2023-05-05T00:54:45.228Z,0
2023-05-05T00:55:58.857Z,0
2023-05-05T00:58:27.785Z,0
2023-05-05T00:59:42.249Z,0
2023-05-05T01:00:55.848Z,0
2023-05-05T01:03:24.779Z,0
2023-05-05T01:04:39.245Z,0
2023-05-05T01:05:53.724Z,0
2023-05-05T01:08:22.649Z,0
2023-05-05T01:09:37.127Z,0
2023-05-05T01:10:51.579Z,0
2023-05-05T01:12:06.043Z,0
2023-05-05T01:13:20.518Z,0
2023-05-05T01:14:34.992Z,0
2023-05-05T01:15:48.606Z,0
2023-05-05T01:17:02.190Z,0
2023-05-05T01:18:16.655Z,0
2023-05-05T01:19:31.120Z,0
2023-05-05T01:20:45.601Z,0
2023-05-05T01:22:00.073Z,0
2023-05-05T01:23:14.523Z,0
2023-05-05T01:24:28.997Z,0
2023-05-05T01:25:43.465Z,0
2023-05-05T01:28:12.393Z,0
2023-05-05T01:29:26.879Z,0
2023-05-05T01:30:41.339Z,0
2023-05-05T01:31:55.813Z,0
2023-05-05T01:33:10.267Z,0
2023-05-05T01:34:24.732Z,0
2023-05-05T01:35:39.319Z,0
2023-05-05T01:36:53.802Z,0
2023-05-05T01:38:08.269Z,0
2023-05-05T01:39:22.730Z,0
2023-05-05T01:40:37.203Z,0
2023-05-05T01:41:51.684Z,0
2023-05-05T01:43:06.131Z,0
2023-05-05T01:44:20.610Z,0
2023-05-05T01:45:34.222Z,0
2023-05-05T01:46:47.815Z,0
2023-05-05T01:48:02.279Z,0
2023-05-05T01:49:16.742Z,0
2023-05-05T01:50:31.222Z,0
2023-05-05T01:51:45.692Z,0
2023-05-05T01:53:00.147Z,0
2023-05-05T01:54:14.604Z,0
2023-05-05T01:55:29.093Z,0
2023-05-05T01:56:43.550Z,0
2023-05-05T01:59:12.482Z,0
2023-05-05T02:00:26.949Z,0
2023-05-05T02:02:55.898Z,0
2023-05-05T02:04:09.510Z,0
2023-05-05T02:05:23.096Z,0
2023-05-05T02:06:37.562Z,0
2023-05-05T02:07:52.036Z,0
2023-05-05T02:09:06.495Z,0
2023-05-05T02:10:20.981Z,0
2023-05-05T02:12:49.904Z,0
2023-05-05T02:14:04.368Z,0
2023-05-05T02:15:18.841Z,0
2023-05-05T02:16:33.319Z,0
2023-05-05T02:17:47.770Z,0
2023-05-05T02:19:02.245Z,0
2023-05-05T02:20:16.710Z,0
2023-05-05T02:21:30.303Z,0
2023-05-05T02:22:44.773Z,0
2023-05-05T02:23:59.240Z,0
2023-05-05T02:25:13.702Z,0
2023-05-05T02:26:28.188Z,0
2023-05-05T02:27:42.641Z,0
2023-05-05T02:28:57.104Z,0
2023-05-05T02:30:11.586Z,0
2023-05-05T02:32:39.670Z,0
2023-05-05T02:33:53.247Z,0
2023-05-05T02:35:07.728Z,0
2023-05-05T02:36:22.181Z,0
2023-05-05T02:37:36.637Z,0
2023-05-05T02:38:51.120Z,0
2023-05-05T02:41:19.183Z,0
2023-05-05T02:42:32.784Z,0
2023-05-05T02:43:47.251Z,0
2023-05-05T02:45:01.724Z,0
2023-05-05T02:46:16.185Z,0
2023-05-05T02:47:30.657Z,0
2023-05-05T02:48:45.120Z,0
2023-05-05T02:49:59.581Z,0
2023-05-05T02:51:14.074Z,0
2023-05-05T02:52:28.540Z,0
2023-05-05T02:53:42.999Z,0
2023-05-05T02:54:57.483Z,0
2023-05-05T02:56:11.944Z,0
2023-05-05T02:57:26.408Z,0
2023-05-05T02:58:40.012Z,0
2023-05-05T02:59:53.600Z,0
2023-05-05T03:01:08.073Z,0
2023-05-05T03:02:22.536Z,0
2023-05-05T03:03:37.007Z,0
2023-05-05T03:04:51.469Z,0
2023-05-05T03:06:05.936Z,0
2023-05-05T03:07:20.416Z,0
2023-05-05T03:08:34.894Z,0
2023-05-05T03:11:03.721Z,0
2023-05-05T03:12:18.140Z,0
2023-05-05T03:13:32.561Z,0
2023-05-05T03:14:46.965Z,0
2023-05-05T03:16:01.385Z,0
2023-05-05T03:17:15.808Z,0
2023-05-05T03:18:29.334Z,0
2023-05-05T03:19:43.747Z,0
2023-05-05T03:20:58.156Z,0
2023-05-05T03:22:12.571Z,0
2023-05-05T03:23:26.988Z,0
2023-05-05T03:24:41.396Z,0
2023-05-05T03:25:54.967Z,0
2023-05-05T03:27:09.363Z,0
2023-05-05T03:28:22.891Z,0
2023-05-05T03:29:37.334Z,0
2023-05-05T03:30:51.730Z,0
2023-05-05T03:32:06.153Z,0
2023-05-05T03:33:20.561Z,0
2023-05-05T03:34:34.976Z,0
2023-05-05T03:35:49.390Z,0
2023-05-05T03:37:03.805Z,0
2023-05-05T03:38:18.206Z,0
2023-05-05T03:40:47.036Z,0
2023-05-05T03:42:01.467Z,0
2023-05-05T03:43:15.869Z,0
2023-05-05T03:44:30.298Z,0
2023-05-05T03:45:44.708Z,0
2023-05-05T03:46:58.237Z,0
2023-05-05T03:48:12.641Z,0
2023-05-05T03:49:27.067Z,0
2023-05-05T03:50:41.482Z,0
2023-05-05T03:51:55.908Z,0
2023-05-05T03:53:10.314Z,0
2023-05-05T03:55:39.136Z,5
2023-05-05T03:56:53.557Z,5
2023-05-05T03:58:07.967Z,5
2023-05-05T04:00:36.800Z,5
2023-05-05T04:01:50.354Z,5
2023-05-05T04:03:04.759Z,5
2023-05-05T04:04:18.306Z,5
2023-05-05T04:05:32.713Z,5
2023-05-05T04:06:47.132Z,5
2023-05-05T04:08:01.541Z,5
2023-05-05T04:09:15.960Z,5
2023-05-05T04:10:30.375Z,5
2023-05-05T04:11:44.786Z,5
2023-05-05T04:12:59.196Z,5
2023-05-05T04:14:13.613Z,11
2023-05-05T04:15:28.030Z,11
2023-05-05T04:16:42.441Z,11
2023-05-05T04:17:55.992Z,11
2023-05-05T04:19:09.543Z,11
2023-05-05T04:20:23.940Z,11
2023-05-05T04:21:38.353Z,11
2023-05-05T04:22:52.774Z,11
2023-05-05T04:24:07.194Z,11
2023-05-05T04:25:21.608Z,11
2023-05-05T04:26:36.014Z,11
2023-05-05T04:27:50.435Z,11
2023-05-05T04:29:04.860Z,11
2023-05-05T04:30:19.251Z,16
2023-05-05T04:31:33.675Z,16
2023-05-05T04:34:02.520Z,16
2023-05-05T04:35:16.918Z,16
2023-05-05T04:36:31.328Z,22
2023-05-05T04:37:45.755Z,33
2023-05-05T04:38:59.280Z,22
2023-05-05T04:40:13.694Z,33
2023-05-05T04:41:28.113Z,22
2023-05-05T04:42:42.540Z,28
2023-05-05T04:43:56.934Z,33
2023-05-05T04:45:11.356Z,28
2023-05-05T04:46:25.768Z,28
2023-05-05T04:47:40.176Z,39
2023-05-05T04:48:54.591Z,39
2023-05-05T04:50:09.009Z,45
2023-05-05T04:51:23.420Z,45
2023-05-05T04:52:37.848Z,45
2023-05-05T04:53:52.251Z,45
2023-05-05T04:55:06.673Z,50
2023-05-05T04:56:21.071Z,50
2023-05-05T04:57:34.614Z,50
2023-05-05T05:00:03.439Z,50
2023-05-05T05:01:17.856Z,50
2023-05-05T05:02:32.271Z,56
2023-05-05T05:05:01.095Z,33
2023-05-05T05:06:15.512Z,45
2023-05-05T05:07:29.921Z,50
2023-05-05T05:08:44.347Z,56
2023-05-05T05:09:58.753Z,50
2023-05-05T05:11:13.182Z,56
2023-05-05T05:12:27.585Z,61
2023-05-05T05:13:41.996Z,56
2023-05-05T05:14:56.410Z,56
2023-05-05T05:16:10.835Z,56
2023-05-05T05:17:24.363Z,56
2023-05-05T05:18:38.776Z,56
2023-05-05T05:19:53.191Z,56
2023-05-05T05:21:07.607Z,61
2023-05-05T05:22:22.031Z,61
2023-05-05T05:23:36.442Z,61
2023-05-05T05:24:50.845Z,61
2023-05-05T05:26:05.264Z,61
2023-05-05T05:27:19.687Z,61
2023-05-05T05:29:48.507Z,61
2023-05-05T05:31:02.916Z,61
2023-05-05T05:32:17.328Z,67
2023-05-05T05:34:45.286Z,67
2023-05-05T05:35:59.684Z,67
2023-05-05T05:37:14.111Z,67
2023-05-05T05:38:28.525Z,67
2023-05-05T05:39:42.932Z,67
2023-05-05T05:40:57.343Z,67
2023-05-05T05:42:11.763Z,67
2023-05-05T05:43:26.185Z,67
2023-05-05T05:44:40.581Z,67
2023-05-05T05:45:55.013Z,67
2023-05-05T05:47:09.417Z,67
2023-05-05T05:48:23.841Z,67
2023-05-05T05:49:38.243Z,67
2023-05-05T05:50:51.775Z,67
2023-05-05T05:52:06.197Z,67
2023-05-05T05:54:35.027Z,67
2023-05-05T05:55:49.435Z,61
2023-05-05T05:57:03.849Z,50
2023-05-05T05:58:18.262Z,61
2023-05-05T05:59:32.670Z,73
2023-05-05T06:00:47.098Z,73
2023-05-05T06:02:01.508Z,73
2023-05-05T06:03:15.916Z,78
2023-05-05T06:04:30.338Z,78
2023-05-05T06:05:44.737Z,78
2023-05-05T06:06:58.279Z,78
2023-05-05T06:08:12.686Z,78
2023-05-05T06:09:27.105Z,84
2023-05-05T06:10:41.513Z,84
2023-05-05T06:11:55.939Z,84
2023-05-05T06:13:10.339Z,84
2023-05-05T06:14:24.749Z,84
2023-05-05T06:15:39.176Z,90
2023-05-05T06:16:52.705Z,90
2023-05-05T06:18:07.123Z,90
2023-05-05T06:19:21.541Z,90
2023-05-05T06:20:35.941Z,90
2023-05-05T06:21:50.372Z,90
2023-05-05T06:23:04.772Z,95
2023-05-05T06:24:19.190Z,95
2023-05-05T06:25:33.601Z,90
2023-05-05T06:26:48.027Z,90
2023-05-05T06:28:02.422Z,90
2023-05-05T06:29:16.840Z,90
2023-05-05T06:30:31.259Z,90
2023-05-05T06:31:45.669Z,95
2023-05-05T06:34:14.499Z,101
2023-05-05T06:35:28.910Z,106
2023-05-05T06:36:43.322Z,106
2023-05-05T06:37:56.870Z,112
2023-05-05T06:39:11.266Z,112
2023-05-05T06:40:25.679Z,112
2023-05-05T06:41:40.099Z,118
2023-05-05T06:42:54.516Z,118
2023-05-05T06:44:08.919Z,118
2023-05-05T06:45:23.336Z,118
2023-05-05T06:46:37.746Z,123
2023-05-05T06:47:52.180Z,123
2023-05-05T06:50:21.000Z,123
2023-05-05T06:51:35.414Z,118
2023-05-05T06:52:49.828Z,118
2023-05-05T06:55:18.647Z,123
2023-05-05T06:56:32.205Z,123
2023-05-05T06:57:46.614Z,123
2023-05-05T06:59:01.033Z,123
2023-05-05T07:00:15.451Z,123
2023-05-05T07:01:28.973Z,123
2023-05-05T07:03:57.812Z,123
2023-05-05T07:05:12.227Z,123
2023-05-05T07:06:26.650Z,123
2023-05-05T07:08:55.459Z,123
2023-05-05T07:10:09.885Z,123
2023-05-05T07:11:24.292Z,123
2023-05-05T07:12:38.709Z,123
2023-05-05T07:13:53.111Z,123
2023-05-05T07:15:07.536Z,123
2023-05-05T07:16:21.087Z,123
2023-05-05T07:18:49.911Z,123
2023-05-05T07:20:04.454Z,123
2023-05-05T07:21:18.863Z,123
2023-05-05T07:23:47.693Z,123
2023-05-05T07:25:02.104Z,123
2023-05-05T07:26:16.524Z,123
2023-05-05T07:27:30.942Z,123
2023-05-05T07:28:45.343Z,123
2023-05-05T07:29:59.744Z,123
2023-05-05T07:31:14.162Z,95
2023-05-05T07:33:42.989Z,123
2023-05-05T07:34:57.401Z,112
2023-05-05T07:36:11.806Z,123
2023-05-05T07:37:26.218Z,118
2023-05-05T07:38:39.768Z,90
2023-05-05T07:39:54.189Z,90
2023-05-05T07:41:08.603Z,106
2023-05-05T07:43:37.428Z,129
2023-05-05T07:44:51.828Z,129
2023-05-05T07:46:06.241Z,112
2023-05-05T07:48:35.073Z,101
2023-05-05T07:49:49.510Z,84
2023-05-05T07:51:03.897Z,112
2023-05-05T07:53:32.724Z,78
2023-05-05T07:54:47.158Z,61
2023-05-05T07:56:01.563Z,56
2023-05-05T07:58:30.375Z,61
2023-05-05T07:59:44.786Z,61
2023-05-05T08:00:59.222Z,67
2023-05-05T08:02:12.740Z,56
2023-05-05T08:03:27.151Z,50
2023-05-05T08:04:41.563Z,50
2023-05-05T08:05:55.995Z,61
2023-05-05T08:07:10.396Z,95
2023-05-05T08:08:24.819Z,101
2023-05-05T08:09:39.235Z,90
2023-05-05T08:10:53.643Z,101
2023-05-05T08:13:22.466Z,90
2023-05-05T08:14:36.892Z,101
2023-05-05T08:15:51.288Z,95
2023-05-05T08:18:20.132Z,95
2023-05-05T08:19:34.527Z,95
2023-05-05T08:20:48.060Z,95
2023-05-05T08:22:02.489Z,90
2023-05-05T08:23:16.910Z,90
2023-05-05T08:24:31.308Z,90
2023-05-05T08:25:45.726Z,90
2023-05-05T08:27:00.138Z,95
2023-05-05T08:28:14.552Z,95
2023-05-05T08:29:28.960Z,90
2023-05-05T08:30:43.408Z,90
2023-05-05T08:31:57.803Z,90
2023-05-05T08:33:12.208Z,90
2023-05-05T08:34:26.635Z,84
2023-05-05T08:35:41.051Z,90
2023-05-05T08:36:54.561Z,90
2023-05-05T08:38:08.997Z,90
2023-05-05T08:39:23.386Z,84
2023-05-05T08:40:36.957Z,90
2023-05-05T08:41:50.497Z,90
2023-05-05T08:43:04.915Z,90
2023-05-05T08:44:19.314Z,90
2023-05-05T08:45:33.740Z,90
2023-05-05T08:48:02.550Z,90
2023-05-05T08:49:16.984Z,95
2023-05-05T08:50:31.373Z,90
2023-05-05T08:51:45.797Z,101
2023-05-05T08:53:00.201Z,95
2023-05-05T08:54:14.617Z,101
2023-05-05T08:55:29.029Z,101
2023-05-05T08:56:43.450Z,90
2023-05-05T08:57:56.992Z,78
2023-05-05T08:59:11.399Z,90
2023-05-05T09:00:25.816Z,95
2023-05-05T09:02:54.640Z,90
2023-05-05T09:04:08.200Z,73
2023-05-05T09:05:21.735Z,90
2023-05-05T09:06:36.152Z,78
2023-05-05T09:07:50.573Z,90
2023-05-05T09:09:04.962Z,67
2023-05-05T09:10:19.408Z,84
2023-05-05T09:11:33.801Z,84
2023-05-05T09:12:48.228Z,95
2023-05-05T09:14:02.642Z,95
2023-05-05T09:15:17.043Z,95
2023-05-05T09:16:31.460Z,95
2023-05-05T09:17:45.001Z,95
2023-05-05T09:18:59.419Z,101
2023-05-05T09:20:12.960Z,101
2023-05-05T09:22:41.784Z,101
2023-05-05T09:23:56.196Z,101
2023-05-05T09:25:10.638Z,101
2023-05-05T09:26:25.032Z,101
2023-05-05T09:27:39.435Z,84
2023-05-05T09:28:53.858Z,67
2023-05-05T09:30:08.299Z,67
2023-05-05T09:31:22.678Z,95
2023-05-05T09:32:37.115Z,101
2023-05-05T09:33:51.513Z,84
2023-05-05T09:35:05.927Z,90
2023-05-05T09:36:20.352Z,106
2023-05-05T09:37:34.745Z,106
2023-05-05T09:38:49.186Z,106
2023-05-05T09:40:03.581Z,112
2023-05-05T09:42:31.521Z,112
2023-05-05T09:43:45.956Z,112
2023-05-05T09:45:00.370Z,112
2023-05-05T09:46:14.800Z,112
2023-05-05T09:47:29.189Z,112
2023-05-05T09:48:43.597Z,112
2023-05-05T09:49:58.019Z,112
2023-05-05T09:51:12.415Z,106
2023-05-05T09:52:26.839Z,101
2023-05-05T09:53:41.251Z,95
2023-05-05T09:54:54.798Z,95
2023-05-05T09:57:22.755Z,95
2023-05-05T09:58:37.172Z,95
2023-05-05T09:59:51.605Z,90
2023-05-05T10:02:20.404Z,95
2023-05-05T10:04:49.243Z,101
2023-05-05T10:06:03.645Z,106
2023-05-05T10:07:18.060Z,106
2023-05-05T10:08:32.494Z,106
2023-05-05T10:12:15.717Z,106
2023-05-05T10:13:29.246Z,106
2023-05-05T10:14:43.683Z,112
2023-05-05T10:15:57.252Z,106
2023-05-05T10:17:11.630Z,112
2023-05-05T10:18:26.068Z,106
2023-05-05T10:19:39.604Z,101
2023-05-05T10:20:54.020Z,106
2023-05-05T10:22:08.404Z,95
2023-05-05T10:23:22.835Z,112
2023-05-05T10:24:37.270Z,118
2023-05-05T10:27:05.215Z,106
2023-05-05T10:28:19.597Z,123
2023-05-05T10:29:34.010Z,123
2023-05-05T10:32:02.865Z,118
2023-05-05T10:33:17.261Z,106
2023-05-05T10:34:31.689Z,101
2023-05-05T10:37:00.495Z,106
2023-05-05T10:38:14.904Z,101
2023-05-05T10:39:29.331Z,101
2023-05-05T10:40:42.905Z,90
2023-05-05T10:41:56.445Z,112
2023-05-05T10:43:10.858Z,112
2023-05-05T10:44:25.265Z,112
2023-05-05T10:45:39.682Z,112
2023-05-05T10:46:54.083Z,106
2023-05-05T10:48:08.501Z,118
2023-05-05T10:49:22.919Z,118
2023-05-05T10:50:37.342Z,123
2023-05-05T10:51:51.752Z,123
2023-05-05T10:53:06.180Z,123
2023-05-05T10:55:35.019Z,129
2023-05-05T10:56:49.403Z,129
2023-05-05T10:58:03.810Z,146
2023-05-05T11:00:32.661Z,140
2023-05-05T11:01:46.184Z,135
2023-05-05T11:03:00.620Z,146
2023-05-05T11:04:15.006Z,129
2023-05-05T11:05:29.415Z,140
2023-05-05T11:06:43.856Z,135
2023-05-05T11:07:58.268Z,146
2023-05-05T11:09:12.660Z,140
2023-05-05T11:10:27.093Z,129
2023-05-05T11:11:41.480Z,118
2023-05-05T11:12:55.922Z,106
2023-05-05T11:14:10.335Z,106
2023-05-05T11:15:24.751Z,123
2023-05-05T11:17:53.580Z,112
2023-05-05T11:20:22.504Z,112
2023-05-05T11:21:36.912Z,101
2023-05-05T11:22:51.333Z,95
2023-05-05T11:24:05.747Z,101
2023-05-05T11:25:20.150Z,101
2023-05-05T11:26:34.594Z,101
2023-05-05T11:27:48.978Z,95
2023-05-05T11:30:17.818Z,106
2023-05-05T11:31:32.228Z,112
2023-05-05T11:32:46.638Z,106
2023-05-05T11:35:15.498Z,118
2023-05-05T11:37:44.328Z,112
2023-05-05T11:38:58.703Z,112
2023-05-05T11:40:13.160Z,118
2023-05-05T11:41:27.564Z,123
2023-05-05T11:42:41.972Z,129
2023-05-05T11:43:56.357Z,123
2023-05-05T11:45:09.921Z,135
2023-05-05T11:46:24.350Z,135
2023-05-05T11:47:38.738Z,135
2023-05-05T11:48:53.133Z,146
2023-05-05T11:50:07.564Z,146
2023-05-05T11:51:21.975Z,151
2023-05-05T11:52:36.374Z,157
2023-05-05T11:55:05.231Z,146
2023-05-05T11:56:19.630Z,140
2023-05-05T11:57:34.072Z,140
2023-05-05T11:58:48.479Z,135
2023-05-05T12:00:02.862Z,129
2023-05-05T12:01:17.277Z,129
2023-05-05T12:02:31.704Z,129
2023-05-05T12:04:59.653Z,123
2023-05-05T12:07:28.485Z,123
2023-05-05T12:09:57.344Z,129
2023-05-05T12:11:11.735Z,129
2023-05-05T12:12:26.186Z,135
2023-05-05T12:14:54.978Z,140
2023-05-05T12:16:09.396Z,140
2023-05-05T12:17:23.804Z,140
2023-05-05T12:19:52.631Z,140
2023-05-05T12:21:06.201Z,140
2023-05-05T12:22:20.573Z,146
2023-05-05T12:24:49.432Z,146
2023-05-05T12:26:03.808Z,151
2023-05-05T12:27:18.224Z,151
2023-05-05T12:28:32.656Z,157
2023-05-05T12:29:47.101Z,157
2023-05-05T12:32:15.883Z,168
2023-05-05T12:33:30.328Z,157
2023-05-05T12:34:44.739Z,174
2023-05-05T12:35:59.125Z,168
2023-05-05T12:37:13.541Z,168
2023-05-05T12:38:27.954Z,174
2023-05-05T12:39:42.363Z,174
2023-05-05T12:40:55.943Z,174
2023-05-05T12:43:24.735Z,180
2023-05-05T12:44:39.149Z,174
2023-05-05T12:45:53.566Z,168
2023-05-05T12:47:07.978Z,151
2023-05-05T12:48:22.385Z,157
2023-05-05T12:49:36.790Z,157
2023-05-05T12:50:51.250Z,151
2023-05-05T12:52:05.665Z,151
2023-05-05T12:53:20.045Z,157
2023-05-05T12:54:34.485Z,163
2023-05-05T12:55:48.891Z,163
2023-05-05T12:57:03.306Z,168
2023-05-05T12:58:17.690Z,185
2023-05-05T12:59:32.104Z,180
2023-05-05T13:00:46.520Z,185
2023-05-05T13:02:00.937Z,191
2023-05-05T13:03:15.391Z,213
2023-05-05T13:04:29.788Z,225
2023-05-05T13:05:43.320Z,225
2023-05-05T13:08:12.170Z,174
2023-05-05T13:09:26.551Z,168
2023-05-05T13:10:41.006Z,168
2023-05-05T13:11:55.386Z,174
2023-05-05T13:13:09.927Z,180
2023-05-05T13:14:24.333Z,196
2023-05-05T13:15:38.756Z,202
2023-05-05T13:16:53.191Z,236
2023-05-05T13:18:07.617Z,247
2023-05-05T13:19:22.000Z,236
2023-05-05T13:20:35.541Z,241
2023-05-05T13:21:49.957Z,253
2023-05-05T13:23:04.365Z,253
2023-05-05T13:24:18.781Z,247
2023-05-05T13:25:33.198Z,196
2023-05-05T13:26:47.619Z,202
2023-05-05T13:28:02.029Z,258
2023-05-05T13:29:16.435Z,264
2023-05-05T13:30:30.007Z,236
2023-05-05T13:31:44.387Z,281
2023-05-05T13:32:58.806Z,298
2023-05-05T13:34:13.216Z,303
2023-05-05T13:35:27.638Z,331
2023-05-05T13:36:42.050Z,343
2023-05-05T13:37:56.451Z,292
2023-05-05T13:39:10.882Z,247
2023-05-05T13:40:25.281Z,225
2023-05-05T13:41:39.694Z,219
2023-05-05T13:42:54.115Z,208
2023-05-05T13:44:08.522Z,191
2023-05-05T13:45:22.942Z,196
2023-05-05T13:46:37.348Z,168
2023-05-05T13:47:51.764Z,163
2023-05-05T13:49:06.180Z,140
2023-05-05T13:50:20.607Z,157
2023-05-05T13:51:35.056Z,140
2023-05-05T13:52:49.467Z,129
2023-05-05T13:54:03.956Z,123
2023-05-05T13:56:32.786Z,123
2023-05-05T13:57:47.208Z,118
2023-05-05T13:59:01.649Z,112
2023-05-05T14:00:16.022Z,112
2023-05-05T14:01:30.442Z,112
2023-05-05T14:03:59.272Z,112
2023-05-05T14:05:13.682Z,112
2023-05-05T14:06:28.089Z,118
2023-05-05T14:07:42.501Z,118
2023-05-05T14:08:56.961Z,118
2023-05-05T14:10:11.332Z,118
2023-05-05T14:11:25.789Z,123
2023-05-05T14:12:40.158Z,129
2023-05-05T14:13:54.577Z,129
2023-05-05T14:15:09.021Z,129
2023-05-05T14:16:22.517Z,135
2023-05-05T14:18:51.362Z,135
2023-05-05T14:21:19.330Z,140
2023-05-05T14:22:33.745Z,140
2023-05-05T14:23:47.290Z,140
2023-05-05T14:25:00.824Z,140
2023-05-05T14:26:15.243Z,140
2023-05-05T14:28:44.063Z,129
2023-05-05T14:29:58.484Z,129
2023-05-05T14:31:12.892Z,123
2023-05-05T14:32:27.310Z,118
2023-05-05T14:33:41.716Z,118
2023-05-05T14:36:10.542Z,106
2023-05-05T14:37:24.966Z,101
2023-05-05T14:38:39.370Z,95
2023-05-05T14:39:53.783Z,90
2023-05-05T14:41:07.339Z,90
2023-05-05T14:42:21.771Z,84
2023-05-05T14:43:35.327Z,84
2023-05-05T14:44:49.709Z,90
2023-05-05T14:46:04.126Z,95
2023-05-05T14:47:18.547Z,95
2023-05-05T14:48:32.955Z,95
2023-05-05T14:49:47.361Z,95
2023-05-05T14:51:01.775Z,95
2023-05-05T14:52:15.319Z,95
2023-05-05T14:54:44.180Z,101
2023-05-05T14:55:58.586Z,106
2023-05-05T14:57:12.968Z,101
2023-05-05T14:58:27.375Z,101
2023-05-05T14:59:41.828Z,95
2023-05-05T15:00:56.253Z,95
2023-05-05T15:03:25.027Z,95
2023-05-05T15:05:53.899Z,90
2023-05-05T15:07:08.282Z,84
2023-05-05T15:08:21.814Z,84
2023-05-05T15:09:36.233Z,78
2023-05-05T15:10:50.681Z,78
2023-05-05T15:12:05.060Z,73
2023-05-05T15:13:19.472Z,73
2023-05-05T15:14:33.881Z,73
2023-05-05T15:15:48.332Z,78
2023-05-05T15:17:02.705Z,73
2023-05-05T15:18:17.115Z,78
2023-05-05T15:19:31.586Z,78
2023-05-05T15:20:45.990Z,78
2023-05-05T15:22:00.400Z,78
2023-05-05T15:23:14.775Z,78
2023-05-05T15:24:28.306Z,84
2023-05-05T15:26:57.145Z,84
2023-05-05T15:28:11.545Z,84
2023-05-05T15:29:25.977Z,84
2023-05-05T15:30:40.391Z,84
2023-05-05T15:31:54.791Z,84
2023-05-05T15:33:09.249Z,78
2023-05-05T15:34:22.767Z,73
2023-05-05T15:35:37.175Z,67
2023-05-05T15:38:06.047Z,61
2023-05-05T15:39:19.544Z,56
2023-05-05T15:40:33.996Z,56
2023-05-05T15:44:17.200Z,56
2023-05-05T15:45:31.604Z,56
2023-05-05T15:46:46.026Z,50
2023-05-05T15:48:00.430Z,45
2023-05-05T15:49:14.855Z,45
2023-05-05T15:50:29.267Z,45
2023-05-05T15:51:42.832Z,45
2023-05-05T15:52:56.366Z,39
2023-05-05T15:54:10.770Z,39
2023-05-05T15:55:25.193Z,33
2023-05-05T15:57:54.053Z,28
2023-05-05T15:59:08.429Z,28
2023-05-05T16:00:22.838Z,22
2023-05-05T16:01:37.252Z,22
2023-05-05T16:02:51.660Z,28
2023-05-05T16:04:06.086Z,28
2023-05-05T16:05:20.483Z,28
2023-05-05T16:06:34.898Z,28
2023-05-05T16:07:49.359Z,28
2023-05-05T16:09:03.731Z,28
2023-05-05T16:10:17.267Z,28
2023-05-05T16:11:31.690Z,28
2023-05-05T16:12:46.087Z,33
2023-05-05T16:14:00.564Z,33
2023-05-05T16:15:14.963Z,33
2023-05-05T16:16:29.331Z,39
2023-05-05T16:17:43.757Z,39
2023-05-05T16:18:57.310Z,39
2023-05-05T16:20:10.843Z,39
2023-05-05T16:21:25.262Z,39
2023-05-05T16:22:39.680Z,45
2023-05-05T16:23:54.075Z,45
2023-05-05T16:25:08.531Z,39
2023-05-05T16:26:22.919Z,33
2023-05-05T16:27:37.376Z,22
2023-05-05T16:28:51.777Z,22
2023-05-05T16:30:06.151Z,16
2023-05-05T16:31:20.616Z,16
2023-05-05T16:32:34.984Z,16
2023-05-05T16:33:48.532Z,16
2023-05-05T16:35:02.984Z,16
2023-05-05T16:36:16.487Z,16
2023-05-05T16:37:30.904Z,16
2023-05-05T16:38:45.353Z,16
2023-05-05T16:39:59.766Z,16
2023-05-05T16:41:14.127Z,16
2023-05-05T16:42:28.562Z,22
2023-05-05T16:43:42.954Z,22
2023-05-05T16:44:57.421Z,22
2023-05-05T16:46:11.796Z,22
2023-05-05T16:47:26.215Z,22
2023-05-05T16:48:40.614Z,16
2023-05-05T16:49:55.068Z,16
2023-05-05T16:52:23.851Z,22
2023-05-05T16:53:38.275Z,28
2023-05-05T16:54:52.733Z,28
2023-05-05T16:57:20.635Z,22
2023-05-05T16:58:35.058Z,22
2023-05-05T16:59:48.646Z,22
2023-05-05T17:02:16.555Z,28
2023-05-05T17:04:45.435Z,33
2023-05-05T17:05:59.790Z,33
2023-05-05T17:07:14.210Z,28
2023-05-05T17:08:28.660Z,28
2023-05-05T17:09:43.072Z,22
2023-05-05T17:10:57.453Z,16
2023-05-05T17:12:11.914Z,16
2023-05-05T17:13:26.275Z,16
2023-05-05T17:14:40.685Z,11
2023-05-05T17:15:55.103Z,11
2023-05-05T17:17:08.633Z,11
2023-05-05T17:18:23.060Z,11
2023-05-05T17:19:37.476Z,11
2023-05-05T17:20:51.888Z,11
2023-05-05T17:22:06.295Z,16
2023-05-05T17:23:20.702Z,16
2023-05-05T17:24:35.112Z,16
2023-05-05T17:25:49.534Z,16
2023-05-05T17:27:03.946Z,16
2023-05-05T17:28:18.401Z,16
2023-05-05T17:29:31.910Z,16
2023-05-05T17:30:46.331Z,16
2023-05-05T17:32:00.744Z,16
2023-05-05T17:33:14.271Z,16
2023-05-05T17:34:28.687Z,11
2023-05-05T17:35:43.108Z,11
2023-05-05T17:36:57.516Z,11
2023-05-05T17:38:11.942Z,11
2023-05-05T17:39:26.339Z,5
2023-05-05T17:40:40.814Z,5
2023-05-05T17:41:55.230Z,0
2023-05-05T17:43:09.589Z,0
2023-05-05T17:44:24.005Z,0
2023-05-05T17:46:52.886Z,0
2023-05-05T17:48:07.238Z,0
2023-05-05T17:49:20.770Z,0
2023-05-05T17:51:49.601Z,0
2023-05-05T17:53:04.013Z,0
2023-05-05T17:54:18.439Z,0
2023-05-05T17:56:47.254Z,0
2023-05-05T17:58:01.724Z,0
2023-05-05T17:59:15.228Z,0
2023-05-05T18:00:29.691Z,0
2023-05-05T18:01:43.187Z,0
2023-05-05T18:02:57.586Z,0
2023-05-05T18:04:12.007Z,0
2023-05-05T18:05:26.469Z,0
2023-05-05T18:06:40.886Z,0
2023-05-05T18:07:55.247Z,0
2023-05-05T18:10:24.115Z,0
2023-05-05T18:11:38.496Z,0
2023-05-05T18:12:52.905Z,0
2023-05-05T18:14:07.319Z,0
2023-05-05T18:15:21.720Z,0
2023-05-05T18:16:36.152Z,0
2023-05-05T18:17:50.677Z,0
2023-05-05T18:19:05.097Z,0
2023-05-05T18:20:19.506Z,0
2023-05-05T18:21:33.920Z,0
2023-05-05T18:22:48.385Z,0
2023-05-05T18:24:02.805Z,0
2023-05-05T18:26:31.568Z,0
2023-05-05T18:27:45.991Z,0
2023-05-05T18:29:00.399Z,0
2023-05-05T18:30:14.816Z,0
2023-05-05T18:31:29.234Z,0
2023-05-05T18:32:43.650Z,0
2023-05-05T18:33:58.101Z,0
2023-05-05T18:35:12.473Z,0
2023-05-05T18:36:26.035Z,0
2023-05-05T18:37:40.432Z,0
2023-05-05T18:38:54.903Z,0
2023-05-05T18:41:22.794Z,0
2023-05-05T18:42:37.218Z,0
2023-05-05T18:43:51.620Z,0
2023-05-05T18:45:06.035Z,0
2023-05-05T18:46:20.465Z,0
2023-05-05T18:47:34.923Z,0
2023-05-05T18:48:49.276Z,0
2023-05-05T18:50:03.697Z,0
2023-05-05T18:51:18.107Z,0
2023-05-05T18:52:32.575Z,0
2023-05-05T18:53:47.048Z,0
2023-05-05T18:55:01.507Z,0
2023-05-05T18:57:29.574Z,0
2023-05-05T18:58:44.048Z,0
2023-05-05T18:59:57.643Z,0
2023-05-05T19:01:12.122Z,0
2023-05-05T19:02:26.589Z,0
2023-05-05T19:03:41.059Z,0
2023-05-05T19:04:55.571Z,0
2023-05-05T19:06:10.110Z,0
2023-05-05T19:07:24.626Z,0
2023-05-05T19:08:39.040Z,0
2023-05-05T19:12:22.490Z,0
2023-05-05T19:13:36.969Z,0
2023-05-05T19:14:51.390Z,0
2023-05-05T19:16:06.054Z,0
2023-05-05T19:17:20.460Z,0
2023-05-05T19:18:34.921Z,0
2023-05-05T19:19:49.391Z,0
2023-05-05T19:21:03.907Z,0
2023-05-05T19:22:18.333Z,0
2023-05-05T19:23:31.967Z,0
2023-05-05T19:24:46.385Z,0
2023-05-05T19:26:00.850Z,0
2023-05-05T19:27:15.324Z,0
2023-05-05T19:28:29.788Z,0
2023-05-05T19:30:58.771Z,0
2023-05-05T19:32:13.190Z,0
2023-05-05T19:33:27.665Z,0
2023-05-05T19:34:42.125Z,0
2023-05-05T19:35:56.652Z,0